sensor_id;sensor_type;location;lat;lon;timestamp;P1;durP1;ratioP1;P2;durP2;ratioP2
37451;SDS011;23314;51.114;6.900;2023-09-30T00:02:25;32.10;;;12.30;;
37451;SDS011;23314;51.114;6.900;2023-09-30T00:04:51;25.10;;;10.27;;
37451;SDS011;23314;51.114;6.900;2023-09-30T00:07:16;21.47;;;11.13;;
37451;SDS011;23314;51.114;6.900;2023-09-30T00:09:41;22.60;;;10.60;;
37451;SDS011;23314;51.114;6.900;2023-09-30T00:12:07;27.10;;;11.07;;
37451;SDS011;23314;51.114;6.900;2023-09-30T00:14:32;22.57;;;10.53;;
37451;SDS011;23314;51.114;6.900;2023-09-30T00:16:57;21.57;;;10.77;;
37451;SDS011;23314;51.114;6.900;2023-09-30T00:19:22;26.77;;;10.60;;
37451;SDS011;23314;51.114;6.900;2023-09-30T00:21:48;19.17;;;10.33;;
37451;SDS011;23314;51.114;6.900;2023-09-30T00:24:13;23.63;;;11.00;;
37451;SDS011;23314;51.114;6.900;2023-09-30T00:26:39;18.83;;;10.40;;
37451;SDS011;23314;51.114;6.900;2023-09-30T00:29:05;20.53;;;10.50;;
37451;SDS011;23314;51.114;6.900;2023-09-30T00:31:30;23.03;;;10.40;;
37451;SDS011;23314;51.114;6.900;2023-09-30T00:33:56;19.17;;;9.60;;
37451;SDS011;23314;51.114;6.900;2023-09-30T00:36:22;25.30;;;10.37;;
37451;SDS011;23314;51.114;6.900;2023-09-30T00:38:47;20.37;;;9.43;;
37451;SDS011;23314;51.114;6.900;2023-09-30T00:41:13;22.00;;;10.10;;
37451;SDS011;23314;51.114;6.900;2023-09-30T00:43:39;27.40;;;10.87;;
37451;SDS011;23314;51.114;6.900;2023-09-30T00:46:06;22.83;;;10.90;;
37451;SDS011;23314;51.114;6.900;2023-09-30T00:48:51;21.53;;;9.97;;
37451;SDS011;23314;51.114;6.900;2023-09-30T00:51:18;23.73;;;10.43;;
37451;SDS011;23314;51.114;6.900;2023-09-30T00:53:43;21.00;;;9.87;;
37451;SDS011;23314;51.114;6.900;2023-09-30T00:56:10;24.70;;;10.43;;
37451;SDS011;23314;51.114;6.900;2023-09-30T00:58:36;16.40;;;9.03;;
37451;SDS011;23314;51.114;6.900;2023-09-30T01:01:03;22.10;;;10.10;;
37451;SDS011;23314;51.114;6.900;2023-09-30T01:03:29;19.00;;;10.03;;
37451;SDS011;23314;51.114;6.900;2023-09-30T01:05:55;19.97;;;9.80;;
37451;SDS011;23314;51.114;6.900;2023-09-30T01:08:20;22.87;;;9.90;;
37451;SDS011;23314;51.114;6.900;2023-09-30T01:10:46;18.93;;;10.07;;
37451;SDS011;23314;51.114;6.900;2023-09-30T01:13:12;20.70;;;11.20;;
37451;SDS011;23314;51.114;6.900;2023-09-30T01:15:37;15.90;;;9.37;;
37451;SDS011;23314;51.114;6.900;2023-09-30T01:18:03;21.37;;;10.27;;
37451;SDS011;23314;51.114;6.900;2023-09-30T01:20:29;22.53;;;9.77;;
37451;SDS011;23314;51.114;6.900;2023-09-30T01:22:54;23.13;;;10.10;;
37451;SDS011;23314;51.114;6.900;2023-09-30T01:25:22;22.17;;;9.87;;
37451;SDS011;23314;51.114;6.900;2023-09-30T01:27:47;22.27;;;9.00;;
37451;SDS011;23314;51.114;6.900;2023-09-30T01:30:13;20.70;;;10.20;;
37451;SDS011;23314;51.114;6.900;2023-09-30T01:32:39;15.77;;;9.20;;
37451;SDS011;23314;51.114;6.900;2023-09-30T01:35:05;21.00;;;9.43;;
37451;SDS011;23314;51.114;6.900;2023-09-30T01:37:30;17.87;;;8.90;;
37451;SDS011;23314;51.114;6.900;2023-09-30T01:39:56;15.47;;;9.43;;
37451;SDS011;23314;51.114;6.900;2023-09-30T01:42:21;16.30;;;9.10;;
37451;SDS011;23314;51.114;6.900;2023-09-30T01:44:46;19.13;;;9.83;;
37451;SDS011;23314;51.114;6.900;2023-09-30T01:47:12;25.80;;;10.43;;
37451;SDS011;23314;51.114;6.900;2023-09-30T01:49:37;22.97;;;11.53;;
37451;SDS011;23314;51.114;6.900;2023-09-30T01:52:03;22.37;;;11.30;;
37451;SDS011;23314;51.114;6.900;2023-09-30T01:54:28;20.87;;;11.70;;
37451;SDS011;23314;51.114;6.900;2023-09-30T01:56:53;23.60;;;11.43;;
37451;SDS011;23314;51.114;6.900;2023-09-30T01:59:19;22.27;;;12.07;;
37451;SDS011;23314;51.114;6.900;2023-09-30T02:01:44;26.27;;;12.00;;
37451;SDS011;23314;51.114;6.900;2023-09-30T02:04:11;23.77;;;12.30;;
37451;SDS011;23314;51.114;6.900;2023-09-30T02:06:38;28.37;;;12.50;;
37451;SDS011;23314;51.114;6.900;2023-09-30T02:09:03;31.47;;;13.67;;
37451;SDS011;23314;51.114;6.900;2023-09-30T02:11:30;29.87;;;13.60;;
37451;SDS011;23314;51.114;6.900;2023-09-30T02:13:55;25.47;;;12.33;;
37451;SDS011;23314;51.114;6.900;2023-09-30T02:16:20;21.60;;;11.87;;
37451;SDS011;23314;51.114;6.900;2023-09-30T02:18:46;27.60;;;12.47;;
37451;SDS011;23314;51.114;6.900;2023-09-30T02:21:12;26.07;;;12.90;;
37451;SDS011;23314;51.114;6.900;2023-09-30T02:23:37;27.63;;;13.93;;
37451;SDS011;23314;51.114;6.900;2023-09-30T02:26:02;37.90;;;14.90;;
37451;SDS011;23314;51.114;6.900;2023-09-30T02:28:28;35.07;;;15.53;;
37451;SDS011;23314;51.114;6.900;2023-09-30T02:30:57;30.30;;;13.33;;
37451;SDS011;23314;51.114;6.900;2023-09-30T02:33:22;24.37;;;12.10;;
37451;SDS011;23314;51.114;6.900;2023-09-30T02:35:47;25.00;;;13.10;;
37451;SDS011;23314;51.114;6.900;2023-09-30T02:38:13;21.40;;;11.97;;
37451;SDS011;23314;51.114;6.900;2023-09-30T02:40:41;29.73;;;13.77;;
37451;SDS011;23314;51.114;6.900;2023-09-30T02:43:10;22.00;;;11.30;;
37451;SDS011;23314;51.114;6.900;2023-09-30T02:45:35;25.70;;;11.83;;
37451;SDS011;23314;51.114;6.900;2023-09-30T02:48:00;28.77;;;11.63;;
37451;SDS011;23314;51.114;6.900;2023-09-30T02:50:26;24.07;;;11.73;;
37451;SDS011;23314;51.114;6.900;2023-09-30T02:52:51;31.80;;;12.93;;
37451;SDS011;23314;51.114;6.900;2023-09-30T02:55:17;22.77;;;11.53;;
37451;SDS011;23314;51.114;6.900;2023-09-30T02:57:42;28.07;;;14.40;;
37451;SDS011;23314;51.114;6.900;2023-09-30T03:00:09;24.50;;;13.30;;
37451;SDS011;23314;51.114;6.900;2023-09-30T03:02:54;30.07;;;14.13;;
37451;SDS011;23314;51.114;6.900;2023-09-30T03:05:21;25.57;;;14.00;;
37451;SDS011;23314;51.114;6.900;2023-09-30T03:07:48;30.70;;;14.20;;
37451;SDS011;23314;51.114;6.900;2023-09-30T03:10:15;27.97;;;14.40;;
37451;SDS011;23314;51.114;6.900;2023-09-30T03:12:48;27.33;;;13.67;;
37451;SDS011;23314;51.114;6.900;2023-09-30T03:15:13;28.87;;;13.87;;
37451;SDS011;23314;51.114;6.900;2023-09-30T03:17:40;30.40;;;14.70;;
37451;SDS011;23314;51.114;6.900;2023-09-30T03:20:06;29.70;;;15.27;;
37451;SDS011;23314;51.114;6.900;2023-09-30T03:22:36;33.80;;;15.50;;
37451;SDS011;23314;51.114;6.900;2023-09-30T03:25:02;27.10;;;14.40;;
37451;SDS011;23314;51.114;6.900;2023-09-30T03:27:27;26.57;;;14.03;;
37451;SDS011;23314;51.114;6.900;2023-09-30T03:29:52;26.70;;;14.17;;
37451;SDS011;23314;51.114;6.900;2023-09-30T03:32:18;30.93;;;12.93;;
37451;SDS011;23314;51.114;6.900;2023-09-30T03:34:43;30.73;;;14.50;;
37451;SDS011;23314;51.114;6.900;2023-09-30T03:37:11;33.43;;;14.17;;
37451;SDS011;23314;51.114;6.900;2023-09-30T03:39:36;23.43;;;11.93;;
37451;SDS011;23314;51.114;6.900;2023-09-30T03:42:03;34.10;;;14.40;;
37451;SDS011;23314;51.114;6.900;2023-09-30T03:44:28;30.97;;;13.50;;
37451;SDS011;23314;51.114;6.900;2023-09-30T03:46:54;33.70;;;13.23;;
37451;SDS011;23314;51.114;6.900;2023-09-30T03:49:19;31.40;;;13.67;;
37451;SDS011;23314;51.114;6.900;2023-09-30T03:51:45;30.90;;;14.13;;
37451;SDS011;23314;51.114;6.900;2023-09-30T03:54:11;35.53;;;14.47;;
37451;SDS011;23314;51.114;6.900;2023-09-30T03:56:36;28.83;;;13.70;;
37451;SDS011;23314;51.114;6.900;2023-09-30T03:59:03;28.77;;;12.40;;
37451;SDS011;23314;51.114;6.900;2023-09-30T04:01:29;30.43;;;14.00;;
37451;SDS011;23314;51.114;6.900;2023-09-30T04:03:56;31.60;;;14.37;;
37451;SDS011;23314;51.114;6.900;2023-09-30T04:06:21;32.03;;;14.03;;
37451;SDS011;23314;51.114;6.900;2023-09-30T04:08:47;26.40;;;13.57;;
37451;SDS011;23314;51.114;6.900;2023-09-30T04:11:13;31.13;;;13.83;;
37451;SDS011;23314;51.114;6.900;2023-09-30T04:13:46;30.30;;;14.03;;
37451;SDS011;23314;51.114;6.900;2023-09-30T04:16:11;31.60;;;13.43;;
37451;SDS011;23314;51.114;6.900;2023-09-30T04:18:37;32.00;;;13.17;;
37451;SDS011;23314;51.114;6.900;2023-09-30T04:21:05;25.07;;;11.90;;
37451;SDS011;23314;51.114;6.900;2023-09-30T04:23:32;26.37;;;11.80;;
37451;SDS011;23314;51.114;6.900;2023-09-30T04:25:58;35.53;;;14.23;;
37451;SDS011;23314;51.114;6.900;2023-09-30T04:28:23;28.57;;;13.10;;
37451;SDS011;23314;51.114;6.900;2023-09-30T04:30:49;27.97;;;13.13;;
37451;SDS011;23314;51.114;6.900;2023-09-30T04:33:18;33.97;;;14.27;;
37451;SDS011;23314;51.114;6.900;2023-09-30T04:35:45;30.33;;;13.80;;
37451;SDS011;23314;51.114;6.900;2023-09-30T04:38:10;28.60;;;14.07;;
37451;SDS011;23314;51.114;6.900;2023-09-30T04:40:36;33.93;;;13.97;;
37451;SDS011;23314;51.114;6.900;2023-09-30T04:43:02;35.23;;;13.37;;
37451;SDS011;23314;51.114;6.900;2023-09-30T04:45:28;30.90;;;13.87;;
37451;SDS011;23314;51.114;6.900;2023-09-30T04:47:53;35.30;;;13.37;;
37451;SDS011;23314;51.114;6.900;2023-09-30T04:50:21;37.43;;;14.73;;
37451;SDS011;23314;51.114;6.900;2023-09-30T04:52:50;30.70;;;14.00;;
37451;SDS011;23314;51.114;6.900;2023-09-30T04:55:16;30.70;;;14.40;;
37451;SDS011;23314;51.114;6.900;2023-09-30T04:57:45;27.47;;;12.43;;
37451;SDS011;23314;51.114;6.900;2023-09-30T05:00:13;29.77;;;13.27;;
37451;SDS011;23314;51.114;6.900;2023-09-30T05:02:39;33.90;;;14.47;;
37451;SDS011;23314;51.114;6.900;2023-09-30T05:05:04;29.43;;;13.60;;
37451;SDS011;23314;51.114;6.900;2023-09-30T05:07:34;38.63;;;14.07;;
37451;SDS011;23314;51.114;6.900;2023-09-30T05:09:59;31.50;;;14.53;;
37451;SDS011;23314;51.114;6.900;2023-09-30T05:12:30;32.23;;;15.37;;
37451;SDS011;23314;51.114;6.900;2023-09-30T05:14:56;28.40;;;14.33;;
37451;SDS011;23314;51.114;6.900;2023-09-30T05:17:22;30.53;;;14.50;;
37451;SDS011;23314;51.114;6.900;2023-09-30T05:19:47;34.40;;;16.13;;
37451;SDS011;23314;51.114;6.900;2023-09-30T05:22:13;36.00;;;15.37;;
37451;SDS011;23314;51.114;6.900;2023-09-30T05:24:38;46.87;;;17.50;;
37451;SDS011;23314;51.114;6.900;2023-09-30T05:27:03;43.30;;;18.30;;
37451;SDS011;23314;51.114;6.900;2023-09-30T05:29:29;45.87;;;18.57;;
37451;SDS011;23314;51.114;6.900;2023-09-30T05:31:58;40.13;;;17.60;;
37451;SDS011;23314;51.114;6.900;2023-09-30T05:34:24;44.53;;;17.23;;
37451;SDS011;23314;51.114;6.900;2023-09-30T05:36:49;39.17;;;18.37;;
37451;SDS011;23314;51.114;6.900;2023-09-30T05:39:16;38.93;;;17.50;;
37451;SDS011;23314;51.114;6.900;2023-09-30T05:41:45;45.07;;;18.13;;
37451;SDS011;23314;51.114;6.900;2023-09-30T05:44:11;45.83;;;18.57;;
37451;SDS011;23314;51.114;6.900;2023-09-30T05:46:39;38.60;;;18.03;;
37451;SDS011;23314;51.114;6.900;2023-09-30T05:49:04;45.27;;;19.27;;
37451;SDS011;23314;51.114;6.900;2023-09-30T05:51:34;44.00;;;18.70;;
37451;SDS011;23314;51.114;6.900;2023-09-30T05:54:00;45.83;;;20.57;;
37451;SDS011;23314;51.114;6.900;2023-09-30T05:56:25;47.53;;;20.90;;
37451;SDS011;23314;51.114;6.900;2023-09-30T05:58:52;45.70;;;19.80;;
37451;SDS011;23314;51.114;6.900;2023-09-30T06:01:17;41.37;;;19.53;;
37451;SDS011;23314;51.114;6.900;2023-09-30T06:03:45;46.80;;;20.00;;
37451;SDS011;23314;51.114;6.900;2023-09-30T06:06:12;46.43;;;19.60;;
37451;SDS011;23314;51.114;6.900;2023-09-30T06:08:43;25.90;;;15.03;;
37451;SDS011;23314;51.114;6.900;2023-09-30T06:11:16;33.87;;;16.87;;
37451;SDS011;23314;51.114;6.900;2023-09-30T06:13:44;38.77;;;17.87;;
37451;SDS011;23314;51.114;6.900;2023-09-30T06:16:11;42.73;;;20.70;;
37451;SDS011;23314;51.114;6.900;2023-09-30T06:18:37;36.30;;;15.63;;
37451;SDS011;23314;51.114;6.900;2023-09-30T06:21:03;37.63;;;20.43;;
37451;SDS011;23314;51.114;6.900;2023-09-30T06:23:29;36.60;;;17.60;;
37451;SDS011;23314;51.114;6.900;2023-09-30T06:25:55;46.03;;;21.03;;
37451;SDS011;23314;51.114;6.900;2023-09-30T06:28:21;46.07;;;21.70;;
37451;SDS011;23314;51.114;6.900;2023-09-30T06:30:53;32.23;;;16.93;;
37451;SDS011;23314;51.114;6.900;2023-09-30T06:33:19;43.27;;;21.20;;
37451;SDS011;23314;51.114;6.900;2023-09-30T06:35:46;33.47;;;16.77;;
37451;SDS011;23314;51.114;6.900;2023-09-30T06:38:20;41.37;;;19.77;;
37451;SDS011;23314;51.114;6.900;2023-09-30T06:40:46;38.20;;;19.30;;
37451;SDS011;23314;51.114;6.900;2023-09-30T06:43:12;40.30;;;21.00;;
37451;SDS011;23314;51.114;6.900;2023-09-30T06:45:41;41.43;;;21.27;;
37451;SDS011;23314;51.114;6.900;2023-09-30T06:48:08;44.37;;;21.80;;
37451;SDS011;23314;51.114;6.900;2023-09-30T06:50:38;41.17;;;20.97;;
37451;SDS011;23314;51.114;6.900;2023-09-30T06:53:16;41.33;;;20.63;;
37451;SDS011;23314;51.114;6.900;2023-09-30T06:55:42;40.63;;;21.37;;
37451;SDS011;23314;51.114;6.900;2023-09-30T06:58:11;40.40;;;22.57;;
37451;SDS011;23314;51.114;6.900;2023-09-30T07:00:37;33.87;;;21.03;;
37451;SDS011;23314;51.114;6.900;2023-09-30T07:03:03;43.97;;;21.17;;
37451;SDS011;23314;51.114;6.900;2023-09-30T07:05:28;44.57;;;21.87;;
37451;SDS011;23314;51.114;6.900;2023-09-30T07:07:54;41.07;;;21.00;;
37451;SDS011;23314;51.114;6.900;2023-09-30T07:10:19;35.90;;;19.63;;
37451;SDS011;23314;51.114;6.900;2023-09-30T07:12:45;40.50;;;20.57;;
37451;SDS011;23314;51.114;6.900;2023-09-30T07:15:10;38.13;;;20.40;;
37451;SDS011;23314;51.114;6.900;2023-09-30T07:17:36;36.83;;;19.97;;
37451;SDS011;23314;51.114;6.900;2023-09-30T07:20:05;33.40;;;20.43;;
37451;SDS011;23314;51.114;6.900;2023-09-30T07:22:31;31.77;;;19.53;;
37451;SDS011;23314;51.114;6.900;2023-09-30T07:24:56;28.63;;;18.47;;
37451;SDS011;23314;51.114;6.900;2023-09-30T07:27:23;35.10;;;19.83;;
37451;SDS011;23314;51.114;6.900;2023-09-30T07:29:48;30.80;;;19.53;;
37451;SDS011;23314;51.114;6.900;2023-09-30T07:32:14;35.73;;;21.73;;
37451;SDS011;23314;51.114;6.900;2023-09-30T07:34:40;34.77;;;21.07;;
37451;SDS011;23314;51.114;6.900;2023-09-30T07:37:05;32.03;;;19.90;;
37451;SDS011;23314;51.114;6.900;2023-09-30T07:39:30;30.00;;;20.17;;
37451;SDS011;23314;51.114;6.900;2023-09-30T07:41:56;31.23;;;18.23;;
37451;SDS011;23314;51.114;6.900;2023-09-30T07:44:21;29.87;;;18.17;;
37451;SDS011;23314;51.114;6.900;2023-09-30T07:46:47;29.47;;;17.17;;
37451;SDS011;23314;51.114;6.900;2023-09-30T07:49:12;29.10;;;17.30;;
37451;SDS011;23314;51.114;6.900;2023-09-30T07:51:37;27.03;;;17.10;;
37451;SDS011;23314;51.114;6.900;2023-09-30T07:54:04;24.00;;;16.13;;
37451;SDS011;23314;51.114;6.900;2023-09-30T07:56:30;25.63;;;15.57;;
37451;SDS011;23314;51.114;6.900;2023-09-30T07:58:56;25.60;;;16.40;;
37451;SDS011;23314;51.114;6.900;2023-09-30T08:01:21;26.40;;;15.73;;
37451;SDS011;23314;51.114;6.900;2023-09-30T08:03:47;21.67;;;14.73;;
37451;SDS011;23314;51.114;6.900;2023-09-30T08:06:12;24.03;;;15.93;;
37451;SDS011;23314;51.114;6.900;2023-09-30T08:08:38;25.50;;;16.07;;
37451;SDS011;23314;51.114;6.900;2023-09-30T08:11:03;26.37;;;15.50;;
37451;SDS011;23314;51.114;6.900;2023-09-30T08:13:29;25.43;;;16.07;;
37451;SDS011;23314;51.114;6.900;2023-09-30T08:15:56;22.27;;;15.60;;
37451;SDS011;23314;51.114;6.900;2023-09-30T08:18:21;22.40;;;15.77;;
37451;SDS011;23314;51.114;6.900;2023-09-30T08:20:46;24.73;;;16.63;;
37451;SDS011;23314;51.114;6.900;2023-09-30T08:23:12;23.87;;;16.00;;
37451;SDS011;23314;51.114;6.900;2023-09-30T08:25:37;25.43;;;16.30;;
37451;SDS011;23314;51.114;6.900;2023-09-30T08:28:03;24.40;;;16.30;;
37451;SDS011;23314;51.114;6.900;2023-09-30T08:30:29;21.50;;;16.80;;
37451;SDS011;23314;51.114;6.900;2023-09-30T08:32:54;22.33;;;16.30;;
37451;SDS011;23314;51.114;6.900;2023-09-30T08:35:20;21.97;;;16.33;;
37451;SDS011;23314;51.114;6.900;2023-09-30T08:37:45;25.03;;;15.93;;
37451;SDS011;23314;51.114;6.900;2023-09-30T08:40:10;23.53;;;15.83;;
37451;SDS011;23314;51.114;6.900;2023-09-30T08:42:38;22.10;;;16.57;;
37451;SDS011;23314;51.114;6.900;2023-09-30T08:45:04;17.43;;;15.40;;
37451;SDS011;23314;51.114;6.900;2023-09-30T08:47:32;23.37;;;16.43;;
37451;SDS011;23314;51.114;6.900;2023-09-30T08:50:00;23.03;;;15.30;;
37451;SDS011;23314;51.114;6.900;2023-09-30T08:52:31;20.37;;;16.57;;
37451;SDS011;23314;51.114;6.900;2023-09-30T08:54:58;22.90;;;16.33;;
37451;SDS011;23314;51.114;6.900;2023-09-30T08:57:23;22.23;;;16.50;;
37451;SDS011;23314;51.114;6.900;2023-09-30T08:59:49;17.73;;;14.73;;
37451;SDS011;23314;51.114;6.900;2023-09-30T09:02:17;18.97;;;15.40;;
37451;SDS011;23314;51.114;6.900;2023-09-30T09:04:43;23.33;;;15.23;;
37451;SDS011;23314;51.114;6.900;2023-09-30T09:07:10;18.57;;;15.03;;
37451;SDS011;23314;51.114;6.900;2023-09-30T09:09:35;20.13;;;15.10;;
37451;SDS011;23314;51.114;6.900;2023-09-30T09:12:00;19.80;;;15.30;;
37451;SDS011;23314;51.114;6.900;2023-09-30T09:14:44;22.33;;;15.10;;
37451;SDS011;23314;51.114;6.900;2023-09-30T09:17:10;18.43;;;13.60;;
37451;SDS011;23314;51.114;6.900;2023-09-30T09:19:36;19.30;;;13.27;;
37451;SDS011;23314;51.114;6.900;2023-09-30T09:22:02;16.77;;;14.17;;
37451;SDS011;23314;51.114;6.900;2023-09-30T09:24:33;17.53;;;13.53;;
37451;SDS011;23314;51.114;6.900;2023-09-30T09:27:09;20.00;;;13.03;;
37451;SDS011;23314;51.114;6.900;2023-09-30T09:29:36;20.43;;;12.17;;
37451;SDS011;23314;51.114;6.900;2023-09-30T09:32:11;17.60;;;11.37;;
37451;SDS011;23314;51.114;6.900;2023-09-30T09:34:41;18.13;;;10.93;;
37451;SDS011;23314;51.114;6.900;2023-09-30T09:37:17;21.73;;;13.87;;
37451;SDS011;23314;51.114;6.900;2023-09-30T09:42:28;18.43;;;13.53;;
37451;SDS011;23314;51.114;6.900;2023-09-30T09:44:55;17.77;;;11.25;;
37451;SDS011;23314;51.114;6.900;2023-09-30T09:47:26;14.20;;;9.88;;
37451;SDS011;23314;51.114;6.900;2023-09-30T09:49:52;16.52;;;11.95;;
37451;SDS011;23314;51.114;6.900;2023-09-30T09:52:18;14.50;;;9.80;;
37451;SDS011;23314;51.114;6.900;2023-09-30T09:54:45;15.18;;;9.05;;
37451;SDS011;23314;51.114;6.900;2023-09-30T09:57:11;14.18;;;8.70;;
37451;SDS011;23314;51.114;6.900;2023-09-30T09:59:38;13.07;;;9.73;;
37451;SDS011;23314;51.114;6.900;2023-09-30T10:02:10;16.58;;;10.85;;
37451;SDS011;23314;51.114;6.900;2023-09-30T10:04:45;17.45;;;10.75;;
37451;SDS011;23314;51.114;6.900;2023-09-30T10:07:16;14.88;;;9.60;;
37451;SDS011;23314;51.114;6.900;2023-09-30T10:09:47;11.48;;;8.30;;
37451;SDS011;23314;51.114;6.900;2023-09-30T10:12:15;14.23;;;9.02;;
37451;SDS011;23314;51.114;6.900;2023-09-30T10:14:42;14.40;;;8.63;;
37451;SDS011;23314;51.114;6.900;2023-09-30T10:17:07;13.38;;;8.60;;
37451;SDS011;23314;51.114;6.900;2023-09-30T10:19:33;10.50;;;7.65;;
37451;SDS011;23314;51.114;6.900;2023-09-30T10:24:46;11.98;;;7.10;;
37451;SDS011;23314;51.114;6.900;2023-09-30T10:35:21;10.73;;;6.15;;
37451;SDS011;23314;51.114;6.900;2023-09-30T10:40:52;10.45;;;5.88;;
37451;SDS011;23314;51.114;6.900;2023-09-30T10:48:54;9.43;;;6.88;;
37451;SDS011;23314;51.114;6.900;2023-09-30T10:51:19;10.88;;;5.57;;
37451;SDS011;23314;51.114;6.900;2023-09-30T10:53:49;8.65;;;5.60;;
37451;SDS011;23314;51.114;6.900;2023-09-30T10:56:21;10.57;;;5.65;;
37451;SDS011;23314;51.114;6.900;2023-09-30T10:58:47;8.27;;;5.32;;
37451;SDS011;23314;51.114;6.900;2023-09-30T11:01:17;8.65;;;5.10;;
37451;SDS011;23314;51.114;6.900;2023-09-30T11:03:44;8.63;;;5.03;;
37451;SDS011;23314;51.114;6.900;2023-09-30T11:06:11;9.55;;;5.40;;
37451;SDS011;23314;51.114;6.900;2023-09-30T11:08:40;8.52;;;4.95;;
37451;SDS011;23314;51.114;6.900;2023-09-30T11:11:11;8.93;;;6.30;;
37451;SDS011;23314;51.114;6.900;2023-09-30T11:13:36;8.80;;;5.40;;
37451;SDS011;23314;51.114;6.900;2023-09-30T11:16:02;9.95;;;4.80;;
37451;SDS011;23314;51.114;6.900;2023-09-30T11:18:30;6.75;;;4.70;;
37451;SDS011;23314;51.114;6.900;2023-09-30T11:23:39;6.93;;;4.65;;
37451;SDS011;23314;51.114;6.900;2023-09-30T11:26:06;11.45;;;5.00;;
37451;SDS011;23314;51.114;6.900;2023-09-30T11:28:41;7.18;;;4.43;;
37451;SDS011;23314;51.114;6.900;2023-09-30T11:31:09;6.93;;;3.60;;
37451;SDS011;23314;51.114;6.900;2023-09-30T11:33:49;6.18;;;3.97;;
37451;SDS011;23314;51.114;6.900;2023-09-30T11:36:22;6.78;;;4.15;;
37451;SDS011;23314;51.114;6.900;2023-09-30T11:38:48;9.63;;;4.32;;
37451;SDS011;23314;51.114;6.900;2023-09-30T11:41:15;5.75;;;3.92;;
37451;SDS011;23314;51.114;6.900;2023-09-30T11:44:16;8.65;;;4.78;;
37451;SDS011;23314;51.114;6.900;2023-09-30T11:49:31;9.48;;;4.38;;
37451;SDS011;23314;51.114;6.900;2023-09-30T11:52:03;9.45;;;4.30;;
37451;SDS011;23314;51.114;6.900;2023-09-30T11:54:33;6.78;;;3.92;;
37451;SDS011;23314;51.114;6.900;2023-09-30T11:57:02;4.43;;;3.70;;
37451;SDS011;23314;51.114;6.900;2023-09-30T11:59:28;6.15;;;4.25;;
37451;SDS011;23314;51.114;6.900;2023-09-30T12:01:54;9.15;;;3.70;;
37451;SDS011;23314;51.114;6.900;2023-09-30T12:04:20;5.13;;;3.42;;
37451;SDS011;23314;51.114;6.900;2023-09-30T12:06:46;5.93;;;3.67;;
37451;SDS011;23314;51.114;6.900;2023-09-30T12:09:13;7.05;;;3.85;;
37451;SDS011;23314;51.114;6.900;2023-09-30T12:11:41;6.85;;;3.72;;
37451;SDS011;23314;51.114;6.900;2023-09-30T12:14:09;6.47;;;3.42;;
37451;SDS011;23314;51.114;6.900;2023-09-30T12:16:35;5.55;;;3.45;;
37451;SDS011;23314;51.114;6.900;2023-09-30T12:19:00;8.13;;;3.78;;
37451;SDS011;23314;51.114;6.900;2023-09-30T12:21:25;6.70;;;3.72;;
37451;SDS011;23314;51.114;6.900;2023-09-30T12:23:51;7.80;;;3.88;;
37451;SDS011;23314;51.114;6.900;2023-09-30T12:26:16;7.43;;;3.90;;
37451;SDS011;23314;51.114;6.900;2023-09-30T12:28:45;8.13;;;3.70;;
37451;SDS011;23314;51.114;6.900;2023-09-30T12:31:10;8.48;;;4.28;;
37451;SDS011;23314;51.114;6.900;2023-09-30T12:33:36;8.43;;;4.10;;
37451;SDS011;23314;51.114;6.900;2023-09-30T12:36:01;7.07;;;3.22;;
37451;SDS011;23314;51.114;6.900;2023-09-30T12:38:27;6.70;;;3.55;;
37451;SDS011;23314;51.114;6.900;2023-09-30T12:40:53;6.57;;;3.38;;
37451;SDS011;23314;51.114;6.900;2023-09-30T12:43:19;5.57;;;3.05;;
37451;SDS011;23314;51.114;6.900;2023-09-30T12:45:45;9.43;;;3.33;;
37451;SDS011;23314;51.114;6.900;2023-09-30T12:48:12;5.55;;;3.65;;
37451;SDS011;23314;51.114;6.900;2023-09-30T12:50:37;8.10;;;3.47;;
37451;SDS011;23314;51.114;6.900;2023-09-30T12:53:03;11.75;;;3.58;;
37451;SDS011;23314;51.114;6.900;2023-09-30T12:55:29;3.72;;;2.60;;
37451;SDS011;23314;51.114;6.900;2023-09-30T12:57:54;5.65;;;3.40;;
37451;SDS011;23314;51.114;6.900;2023-09-30T13:00:19;7.82;;;3.10;;
37451;SDS011;23314;51.114;6.900;2023-09-30T13:02:47;3.95;;;2.92;;
37451;SDS011;23314;51.114;6.900;2023-09-30T13:05:13;5.30;;;2.90;;
37451;SDS011;23314;51.114;6.900;2023-09-30T13:07:39;7.85;;;2.92;;
37451;SDS011;23314;51.114;6.900;2023-09-30T13:10:04;7.85;;;3.45;;
37451;SDS011;23314;51.114;6.900;2023-09-30T13:12:30;6.38;;;3.17;;
37451;SDS011;23314;51.114;6.900;2023-09-30T13:14:58;6.95;;;3.33;;
37451;SDS011;23314;51.114;6.900;2023-09-30T13:17:24;7.07;;;3.33;;
37451;SDS011;23314;51.114;6.900;2023-09-30T13:19:50;7.25;;;3.40;;
37451;SDS011;23314;51.114;6.900;2023-09-30T13:22:16;5.88;;;3.45;;
37451;SDS011;23314;51.114;6.900;2023-09-30T13:24:42;6.63;;;3.60;;
37451;SDS011;23314;51.114;6.900;2023-09-30T13:27:08;6.40;;;3.17;;
37451;SDS011;23314;51.114;6.900;2023-09-30T13:29:33;9.23;;;4.25;;
37451;SDS011;23314;51.114;6.900;2023-09-30T13:31:58;9.10;;;4.00;;
37451;SDS011;23314;51.114;6.900;2023-09-30T13:34:24;7.53;;;3.33;;
37451;SDS011;23314;51.114;6.900;2023-09-30T13:36:49;10.15;;;4.97;;
37451;SDS011;23314;51.114;6.900;2023-09-30T13:39:15;7.75;;;3.63;;
37451;SDS011;23314;51.114;6.900;2023-09-30T13:41:42;14.43;;;5.53;;
37451;SDS011;23314;51.114;6.900;2023-09-30T13:44:08;7.55;;;3.60;;
37451;SDS011;23314;51.114;6.900;2023-09-30T13:46:34;4.93;;;3.67;;
37451;SDS011;23314;51.114;6.900;2023-09-30T13:48:59;4.32;;;3.20;;
37451;SDS011;23314;51.114;6.900;2023-09-30T13:51:24;6.43;;;3.22;;
37451;SDS011;23314;51.114;6.900;2023-09-30T13:53:51;6.70;;;3.40;;
37451;SDS011;23314;51.114;6.900;2023-09-30T13:56:18;6.88;;;3.28;;
37451;SDS011;23314;51.114;6.900;2023-09-30T13:58:44;5.03;;;3.05;;
37451;SDS011;23314;51.114;6.900;2023-09-30T14:01:09;6.57;;;3.72;;
37451;SDS011;23314;51.114;6.900;2023-09-30T14:03:36;6.40;;;2.92;;
37451;SDS011;23314;51.114;6.900;2023-09-30T14:06:01;4.85;;;3.05;;
37451;SDS011;23314;51.114;6.900;2023-09-30T14:08:27;5.97;;;3.03;;
37451;SDS011;23314;51.114;6.900;2023-09-30T14:10:52;5.45;;;3.35;;
37451;SDS011;23314;51.114;6.900;2023-09-30T14:13:17;10.60;;;3.28;;
37451;SDS011;23314;51.114;6.900;2023-09-30T14:15:44;9.10;;;3.67;;
37451;SDS011;23314;51.114;6.900;2023-09-30T14:18:09;8.30;;;3.33;;
37451;SDS011;23314;51.114;6.900;2023-09-30T14:20:35;8.18;;;3.70;;
37451;SDS011;23314;51.114;6.900;2023-09-30T14:23:00;10.45;;;3.75;;
37451;SDS011;23314;51.114;6.900;2023-09-30T14:25:26;5.70;;;3.05;;
37451;SDS011;23314;51.114;6.900;2023-09-30T14:27:52;8.15;;;3.50;;
37451;SDS011;23314;51.114;6.900;2023-09-30T14:30:17;6.53;;;2.85;;
37451;SDS011;23314;51.114;6.900;2023-09-30T14:32:44;5.25;;;3.20;;
37451;SDS011;23314;51.114;6.900;2023-09-30T14:35:10;8.02;;;3.70;;
37451;SDS011;23314;51.114;6.900;2023-09-30T14:37:35;8.18;;;3.00;;
37451;SDS011;23314;51.114;6.900;2023-09-30T14:40:01;9.43;;;3.13;;
37451;SDS011;23314;51.114;6.900;2023-09-30T14:42:34;8.40;;;3.20;;
37451;SDS011;23314;51.114;6.900;2023-09-30T14:45:00;7.65;;;3.60;;
37451;SDS011;23314;51.114;6.900;2023-09-30T14:47:25;6.13;;;3.05;;
37451;SDS011;23314;51.114;6.900;2023-09-30T14:49:50;6.47;;;3.17;;
37451;SDS011;23314;51.114;6.900;2023-09-30T14:52:16;5.95;;;2.88;;
37451;SDS011;23314;51.114;6.900;2023-09-30T14:54:41;3.92;;;2.90;;
37451;SDS011;23314;51.114;6.900;2023-09-30T14:57:07;5.38;;;3.33;;